createdAt,value
2024-03-25T00:00:33.090Z,99.99
2024-03-25T00:01:33.057Z,99.99
2024-03-25T00:02:33.046Z,99.99
2024-03-25T00:03:33.073Z,99.99
2024-03-25T00:04:33.027Z,99.99
2024-03-25T00:05:33.030Z,99.99
2024-03-25T00:06:33.024Z,99.99
2024-03-25T00:07:33.004Z,99.99
2024-03-25T00:08:32.983Z,99.99
2024-03-25T00:09:33.069Z,99.99
2024-03-25T00:10:33.000Z,99.99
2024-03-25T00:11:32.950Z,99.99
2024-03-25T00:12:32.954Z,99.99
2024-03-25T00:13:32.933Z,99.99
2024-03-25T00:14:32.920Z,99.99
2024-03-25T00:15:32.941Z,99.99
2024-03-25T00:16:32.954Z,99.99
2024-03-25T00:17:32.917Z,99.99
2024-03-25T00:18:32.893Z,99.99
2024-03-25T00:19:32.878Z,99.99
2024-03-25T00:20:32.900Z,99.99
2024-03-25T00:21:32.892Z,99.99
2024-03-25T00:22:32.859Z,99.99
2024-03-25T00:23:32.829Z,99.99
2024-03-25T00:24:32.834Z,99.99
2024-03-25T00:25:32.814Z,99.99
2024-03-25T00:26:32.807Z,99.99
2024-03-25T00:27:32.816Z,99.99
2024-03-25T00:28:32.775Z,99.99
2024-03-25T00:29:32.766Z,99.99
2024-03-25T00:30:32.767Z,99.99
2024-03-25T00:31:32.767Z,99.99
2024-03-25T00:32:32.739Z,99.99
2024-03-25T00:33:32.770Z,99.99
2024-03-25T00:34:32.726Z,99.99
2024-03-25T00:35:32.830Z,99.99
2024-03-25T00:36:32.699Z,99.99
2024-03-25T00:37:32.757Z,99.99
2024-03-25T00:39:32.796Z,99.99
2024-03-25T00:40:32.802Z,99.99
2024-03-25T00:41:32.750Z,99.99
2024-03-25T00:42:32.633Z,99.99
2024-03-25T00:43:32.643Z,99.99
2024-03-25T00:44:32.633Z,99.99
2024-03-25T00:45:32.654Z,99.99
2024-03-25T00:46:32.613Z,99.99
2024-03-25T00:47:32.585Z,99.99
2024-03-25T00:48:32.591Z,99.99
2024-03-25T00:49:32.566Z,99.99
2024-03-25T00:50:32.554Z,99.99
2024-03-25T00:51:32.571Z,99.99
2024-03-25T00:52:32.530Z,99.99
2024-03-25T00:53:32.531Z,99.99
2024-03-25T00:54:32.503Z,99.99
2024-03-25T00:55:32.511Z,99.99
2024-03-25T00:56:32.489Z,99.99
2024-03-25T00:57:32.490Z,99.99
2024-03-25T00:58:32.469Z,99.99
2024-03-25T00:59:32.457Z,99.99
2024-03-25T01:00:32.473Z,99.99
2024-03-25T01:01:32.452Z,99.99
2024-03-25T01:02:32.421Z,99.99
2024-03-25T01:03:32.422Z,99.99
2024-03-25T01:04:32.402Z,99.99
2024-03-25T01:05:32.397Z,99.99
2024-03-25T01:06:32.373Z,99.99
2024-03-25T01:07:32.377Z,99.99
2024-03-25T01:08:32.357Z,99.99
2024-03-25T01:09:32.380Z,99.99
2024-03-25T01:10:32.354Z,99.99
2024-03-25T01:11:32.349Z,99.99
2024-03-25T01:12:32.308Z,99.99
2024-03-25T01:13:32.325Z,99.99
2024-03-25T01:14:32.292Z,99.99
2024-03-25T01:15:32.306Z,99.99
2024-03-25T01:16:32.277Z,99.99
2024-03-25T01:17:32.263Z,99.99
2024-03-25T01:18:32.248Z,99.99
2024-03-25T01:19:32.261Z,99.99
2024-03-25T01:20:32.232Z,99.99
2024-03-25T01:21:32.260Z,99.99
2024-03-25T01:22:32.218Z,99.99
2024-03-25T01:23:32.206Z,99.99
2024-03-25T01:24:32.189Z,99.99
2024-03-25T01:25:32.182Z,99.99
2024-03-25T01:26:32.157Z,99.99
2024-03-25T01:27:32.188Z,99.99
2024-03-25T01:28:32.143Z,99.99
2024-03-25T01:29:32.130Z,99.99
2024-03-25T01:30:32.113Z,99.99
2024-03-25T01:31:32.115Z,99.99
2024-03-25T01:32:32.090Z,99.99
2024-03-25T01:33:32.121Z,99.99
2024-03-25T01:34:32.087Z,99.99
2024-03-25T01:35:32.082Z,99.99
2024-03-25T01:36:32.050Z,99.99
2024-03-25T01:37:32.044Z,99.99
2024-03-25T01:38:32.027Z,99.99
2024-03-25T01:39:32.066Z,99.99
2024-03-25T01:40:32.015Z,99.99
2024-03-25T01:41:32.012Z,99.99
2024-03-25T01:42:31.984Z,99.99
2024-03-25T01:43:31.978Z,99.99
2024-03-25T01:44:31.961Z,99.99
2024-03-25T01:45:32.003Z,99.99
2024-03-25T01:46:31.933Z,99.99
2024-03-25T01:47:32.060Z,99.99
2024-03-25T01:48:31.927Z,99.99
2024-03-25T01:49:31.925Z,99.99
2024-03-25T01:50:31.896Z,99.99
2024-03-25T01:51:31.938Z,99.99
2024-03-25T01:52:31.870Z,99.99
2024-03-25T01:53:31.862Z,99.99
2024-03-25T01:54:32.472Z,99.99
2024-03-25T01:55:31.847Z,99.99
2024-03-25T01:56:31.837Z,99.99
2024-03-25T01:57:31.860Z,99.99
2024-03-25T01:58:31.807Z,99.99
2024-03-25T01:59:31.802Z,99.99
2024-03-25T02:00:31.799Z,99.99
2024-03-25T02:01:31.801Z,99.99
2024-03-25T02:02:31.769Z,99.99
2024-03-25T02:03:31.808Z,99.99
2024-03-25T02:04:31.749Z,99.99
2024-03-25T02:05:31.744Z,99.99
2024-03-25T02:06:31.729Z,99.99
2024-03-25T02:07:31.723Z,99.99
2024-03-25T02:08:31.705Z,99.99
2024-03-25T02:09:31.714Z,99.99
2024-03-25T02:10:31.679Z,99.99
2024-03-25T02:11:31.679Z,99.99
2024-03-25T02:12:31.668Z,99.99
2024-03-25T02:13:31.666Z,99.99
2024-03-25T02:14:31.645Z,99.99
2024-03-25T02:15:31.650Z,99.99
2024-03-25T02:16:31.613Z,99.99
2024-03-25T02:17:31.610Z,99.99
2024-03-25T02:18:31.595Z,99.99
2024-03-25T02:19:31.615Z,99.99
2024-03-25T02:20:31.590Z,99.99
2024-03-25T02:21:31.618Z,99.99
2024-03-25T02:22:31.590Z,99.99
2024-03-25T02:23:31.554Z,99.99
2024-03-25T02:24:31.524Z,99.99
2024-03-25T02:25:31.592Z,99.99
2024-03-25T02:26:31.527Z,99.99
2024-03-25T02:27:31.538Z,99.99
2024-03-25T02:28:31.488Z,99.99
2024-03-25T02:29:31.492Z,99.99
2024-03-25T02:30:31.463Z,99.99
2024-03-25T02:31:31.491Z,99.99
2024-03-25T02:32:31.459Z,99.99
2024-03-25T02:33:31.484Z,99.99
2024-03-25T02:34:31.422Z,99.99
2024-03-25T02:35:31.439Z,99.99
2024-03-25T02:36:31.407Z,99.99
2024-03-25T02:37:31.399Z,99.99
2024-03-25T02:38:31.390Z,99.99
2024-03-25T02:39:31.400Z,99.99
2024-03-25T02:40:31.360Z,99.99
2024-03-25T02:41:31.369Z,99.99
2024-03-25T02:42:31.353Z,99.99
2024-03-25T02:43:31.349Z,99.99
2024-03-25T02:44:31.333Z,99.99
2024-03-25T02:45:31.341Z,99.99
2024-03-25T02:46:31.300Z,99.99
2024-03-25T02:47:31.312Z,99.99
2024-03-25T02:48:31.280Z,99.99
2024-03-25T02:49:31.278Z,99.99
2024-03-25T02:50:31.295Z,99.99
2024-03-25T02:51:31.268Z,99.99
2024-03-25T02:52:31.245Z,99.99
2024-03-25T02:53:31.266Z,99.99
2024-03-25T02:54:31.238Z,99.99
2024-03-25T02:55:31.218Z,99.99
2024-03-25T02:56:31.220Z,99.99
2024-03-25T02:57:31.250Z,99.99
2024-03-25T02:58:31.182Z,99.99
2024-03-25T02:59:31.190Z,99.99
2024-03-25T03:00:31.166Z,99.99
2024-03-25T03:01:31.179Z,99.99
2024-03-25T03:02:31.163Z,99.99
2024-03-25T03:03:31.160Z,99.99
2024-03-25T03:04:31.124Z,99.99
2024-03-25T03:05:31.125Z,99.99
2024-03-25T03:06:31.122Z,99.99
2024-03-25T03:07:31.140Z,99.99
2024-03-25T03:08:31.090Z,99.99
2024-03-25T03:09:31.116Z,99.99
2024-03-25T03:10:31.078Z,99.99
2024-03-25T03:11:31.058Z,99.99
2024-03-25T03:12:31.085Z,99.99
2024-03-25T03:13:31.036Z,99.99
2024-03-25T03:14:31.032Z,99.99
2024-03-25T03:15:31.049Z,99.99
2024-03-25T03:16:31.005Z,99.99
2024-03-25T03:17:30.993Z,99.99
2024-03-25T03:18:31.002Z,99.99
2024-03-25T03:19:30.978Z,99.99
2024-03-25T03:20:30.973Z,99.99
2024-03-25T03:21:30.998Z,99.99
2024-03-25T03:22:30.945Z,99.99
2024-03-25T03:23:30.947Z,99.99
2024-03-25T03:24:30.926Z,99.99
2024-03-25T03:25:30.929Z,99.99
2024-03-25T03:26:30.910Z,99.99
2024-03-25T03:27:30.928Z,99.99
2024-03-25T03:28:30.883Z,99.99
2024-03-25T03:29:30.895Z,99.99
2024-03-25T03:30:30.878Z,99.99
2024-03-25T03:31:30.874Z,99.99
2024-03-25T03:32:30.845Z,99.99
2024-03-25T03:33:30.884Z,99.99
2024-03-25T03:34:30.832Z,99.99
2024-03-25T03:35:30.822Z,99.99
2024-03-25T03:36:30.821Z,99.99
2024-03-25T03:37:30.805Z,99.99
2024-03-25T03:38:30.787Z,99.99
2024-03-25T03:39:30.810Z,99.99
2024-03-25T03:40:30.760Z,99.99
2024-03-25T03:41:30.756Z,99.99
2024-03-25T03:42:30.752Z,99.99
2024-03-25T03:43:30.732Z,99.99
2024-03-25T03:44:30.721Z,99.99
2024-03-25T03:45:30.747Z,99.99
2024-03-25T03:46:30.697Z,99.99
2024-03-25T03:47:30.703Z,99.99
2024-03-25T03:48:30.686Z,99.99
2024-03-25T03:49:30.680Z,99.99
2024-03-25T03:50:30.651Z,99.99
2024-03-25T03:51:30.685Z,99.99
2024-03-25T03:52:30.647Z,99.99
2024-03-25T03:53:30.633Z,99.99
2024-03-25T03:54:30.623Z,99.99
2024-03-25T03:55:30.607Z,99.99
2024-03-25T03:56:30.589Z,99.99
2024-03-25T03:57:30.615Z,99.99
2024-03-25T03:58:30.573Z,99.99
2024-03-25T03:59:30.567Z,99.99
2024-03-25T04:00:30.567Z,99.99
2024-03-25T04:01:30.545Z,99.99
2024-03-25T04:02:30.525Z,99.99
2024-03-25T04:03:30.546Z,99.99
2024-03-25T04:04:30.501Z,99.99
2024-03-25T04:05:30.507Z,99.99
2024-03-25T04:06:30.506Z,99.99
2024-03-25T04:07:30.479Z,99.99
2024-03-25T04:08:30.462Z,99.99
2024-03-25T04:09:30.484Z,99.99
2024-03-25T04:10:30.480Z,99.99
2024-03-25T04:11:30.443Z,99.99
2024-03-25T04:12:30.441Z,99.99
2024-03-25T04:13:30.410Z,99.99
2024-03-25T04:14:30.477Z,99.99
2024-03-25T04:15:30.413Z,99.99
2024-03-25T04:16:30.413Z,99.99
2024-03-25T04:17:30.372Z,99.99
2024-03-25T04:18:30.363Z,99.99
2024-03-25T04:19:30.379Z,99.99
2024-03-25T04:20:30.341Z,99.99
2024-03-25T04:21:30.351Z,99.99
2024-03-25T04:22:30.333Z,99.99
2024-03-25T04:23:30.306Z,99.99
2024-03-25T04:24:30.299Z,99.99
2024-03-25T04:25:30.344Z,99.99
2024-03-25T04:26:30.293Z,99.99
2024-03-25T04:27:30.270Z,99.99
2024-03-25T04:28:30.268Z,99.99
2024-03-25T04:29:30.245Z,99.99
2024-03-25T04:30:30.248Z,99.99
2024-03-25T04:31:30.286Z,99.99
2024-03-25T04:32:30.261Z,99.99
2024-03-25T04:33:30.219Z,99.99
2024-03-25T04:34:30.195Z,99.99
2024-03-25T04:35:30.192Z,99.99
2024-03-25T04:36:31.339Z,99.99
2024-03-25T04:37:30.187Z,99.99
2024-03-25T04:38:30.173Z,99.99
2024-03-25T04:39:30.162Z,99.99
2024-03-25T04:40:30.137Z,99.99
2024-03-25T04:41:30.140Z,99.99
2024-03-25T04:42:30.162Z,99.99
2024-03-25T04:43:30.145Z,99.99
2024-03-25T04:44:30.112Z,99.99
2024-03-25T04:45:30.077Z,99.99
2024-03-25T04:46:30.071Z,99.99
2024-03-25T04:47:30.067Z,99.99
2024-03-25T04:48:30.148Z,99.99
2024-03-25T04:49:30.054Z,99.99
2024-03-25T04:50:30.045Z,99.99
2024-03-25T04:51:30.025Z,99.99
2024-03-25T04:52:30.025Z,99.99
2024-03-25T04:53:30.000Z,99.99
2024-03-25T04:54:30.016Z,99.99
2024-03-25T04:55:29.987Z,99.99
2024-03-25T04:56:29.974Z,99.99
2024-03-25T04:57:29.962Z,99.99
2024-03-25T04:58:29.953Z,99.99
2024-03-25T04:59:29.940Z,99.99
2024-03-25T05:00:29.946Z,99.99
2024-03-25T05:01:29.932Z,99.99
2024-03-25T05:02:29.917Z,99.99
2024-03-25T05:03:29.907Z,99.99
2024-03-25T05:04:29.889Z,99.99
2024-03-25T05:05:29.902Z,99.99
2024-03-25T05:06:29.877Z,99.99
2024-03-25T05:07:29.857Z,99.99
2024-03-25T05:08:29.854Z,99.99
2024-03-25T05:09:29.839Z,99.99
2024-03-25T05:10:29.826Z,99.99
2024-03-25T05:11:29.872Z,99.99
2024-03-25T05:12:29.820Z,99.99
2024-03-25T05:13:29.797Z,99.99
2024-03-25T05:14:29.850Z,99.99
2024-03-25T05:15:29.796Z,99.99
2024-03-25T05:16:29.766Z,99.99
2024-03-25T05:17:29.777Z,99.99
2024-03-25T05:18:29.751Z,99.99
2024-03-25T05:19:29.731Z,99.99
2024-03-25T05:20:30.468Z,99.99
2024-03-25T05:21:29.714Z,99.99
2024-03-25T05:22:29.729Z,99.99
2024-03-25T05:23:29.684Z,99.99
2024-03-25T05:24:29.686Z,99.99
2024-03-25T05:25:29.682Z,99.99
2024-03-25T05:26:29.660Z,99.99
2024-03-25T05:27:29.646Z,99.99
2024-03-25T05:28:29.666Z,99.99
2024-03-25T05:29:29.627Z,99.99
2024-03-25T05:30:29.627Z,99.99
2024-03-25T05:31:29.600Z,99.99
2024-03-25T05:32:29.640Z,99.99
2024-03-25T05:33:29.601Z,99.99
2024-03-25T05:34:29.596Z,99.99
2024-03-25T05:35:29.571Z,99.99
2024-03-25T05:36:29.553Z,99.99
2024-03-25T05:37:29.547Z,99.99
2024-03-25T05:38:29.538Z,99.99
2024-03-25T05:39:29.542Z,99.99
2024-03-25T05:40:29.526Z,99.99
2024-03-25T05:41:29.506Z,99.99
2024-03-25T05:42:29.516Z,99.99
2024-03-25T05:43:29.485Z,99.99
2024-03-25T05:44:29.505Z,99.99
2024-03-25T05:45:29.492Z,99.99
2024-03-25T05:46:29.451Z,99.99
2024-03-25T05:47:29.439Z,99.99
2024-03-25T05:48:29.432Z,99.99
2024-03-25T05:49:29.428Z,99.99
2024-03-25T05:50:29.410Z,99.99
2024-03-25T05:51:29.424Z,99.99
2024-03-25T05:52:29.397Z,99.99
2024-03-25T05:53:29.685Z,99.99
2024-03-25T05:54:29.374Z,99.99
2024-03-25T05:55:29.361Z,99.99
2024-03-25T05:56:29.389Z,99.99
2024-03-25T05:57:29.379Z,99.99
2024-03-25T05:58:29.341Z,99.99
2024-03-25T05:59:29.332Z,99.99
2024-03-25T06:00:29.320Z,99.99
2024-03-25T06:01:29.327Z,99.99
2024-03-25T06:02:29.370Z,99.99
2024-03-25T06:03:29.283Z,99.99
2024-03-25T06:04:29.271Z,99.99
2024-03-25T06:05:29.272Z,99.99
2024-03-25T06:06:29.251Z,99.99
2024-03-25T06:07:29.277Z,99.99
2024-03-25T06:08:29.242Z,99.99
2024-03-25T06:09:29.207Z,99.99
2024-03-25T06:10:29.969Z,99.99
2024-03-25T06:11:29.221Z,99.99
2024-03-25T06:12:29.212Z,99.99
2024-03-25T06:13:29.190Z,99.99
2024-03-25T06:14:29.220Z,99.99
2024-03-25T06:15:29.159Z,99.99
2024-03-25T06:16:29.138Z,99.99
2024-03-25T06:17:29.135Z,99.99
2024-03-25T06:18:29.162Z,99.99
2024-03-25T06:19:29.138Z,99.99
2024-03-25T06:20:29.103Z,99.99
2024-03-25T06:21:29.089Z,99.99
2024-03-25T06:22:29.117Z,99.99
2024-03-25T06:23:29.081Z,99.99
2024-03-25T06:24:29.071Z,99.99
2024-03-25T06:25:29.075Z,99.99
2024-03-25T06:26:29.042Z,99.99
2024-03-25T06:27:29.042Z,99.99
2024-03-25T06:28:29.018Z,99.99
2024-03-25T06:29:29.005Z,99.99
2024-03-25T06:30:29.026Z,99.99
2024-03-25T06:31:28.995Z,99.99
2024-03-25T06:32:29.000Z,99.99
2024-03-25T06:33:28.965Z,99.99
2024-03-25T06:34:28.949Z,99.99
2024-03-25T06:35:28.952Z,99.99
2024-03-25T06:36:29.002Z,99.99
2024-03-25T06:37:28.922Z,99.99
2024-03-25T06:38:28.909Z,99.99
2024-03-25T06:39:28.903Z,99.99
2024-03-25T06:40:28.905Z,99.99
2024-03-25T06:41:28.876Z,99.99
2024-03-25T06:42:28.922Z,99.99
2024-03-25T06:43:28.917Z,99.99
2024-03-25T06:44:28.852Z,99.99
2024-03-25T06:45:28.850Z,99.99
2024-03-25T06:46:28.840Z,99.99
2024-03-25T06:47:28.839Z,99.99
2024-03-25T06:48:28.806Z,99.99
2024-03-25T06:49:28.802Z,99.99
2024-03-25T06:50:28.811Z,99.99
2024-03-25T06:51:28.777Z,99.99
2024-03-25T06:52:28.804Z,99.21
2024-03-25T06:53:28.808Z,99.99
2024-03-25T06:54:28.759Z,99.99
2024-03-25T06:55:28.739Z,99.99
2024-03-25T06:56:28.748Z,99.99
2024-03-25T06:57:28.725Z,99.99
2024-03-25T06:58:28.706Z,98.75
2024-03-25T06:59:28.713Z,97.82
2024-03-25T07:00:28.706Z,98.23
2024-03-25T07:01:28.671Z,97.92
2024-03-25T07:02:28.684Z,99.37
2024-03-25T07:03:28.647Z,99.43
2024-03-25T07:04:28.667Z,98.55
2024-03-25T07:05:28.646Z,98.55
2024-03-25T07:06:28.620Z,97.52
2024-03-25T07:07:28.605Z,97.94
2024-03-25T07:08:28.638Z,98.50
2024-03-25T07:09:28.577Z,96.30
2024-03-25T07:10:28.609Z,95.12
2024-03-25T07:11:28.594Z,92.71
2024-03-25T07:12:28.583Z,92.92
2024-03-25T07:13:28.570Z,92.96
2024-03-25T07:14:28.643Z,93.11
2024-03-25T07:15:28.520Z,93.58
2024-03-25T07:16:28.526Z,96.56
2024-03-25T07:17:28.519Z,93.68
2024-03-25T07:18:28.500Z,93.37
2024-03-25T07:19:28.479Z,93.58
2024-03-25T07:20:28.474Z,92.86
2024-03-25T07:21:28.544Z,92.86
2024-03-25T07:22:28.507Z,92.49
2024-03-25T07:23:28.457Z,93.66
2024-03-25T07:24:28.450Z,93.87
2024-03-25T07:25:28.412Z,94.28
2024-03-25T07:26:28.471Z,94.24
2024-03-25T07:27:28.417Z,93.62
2024-03-25T07:28:28.395Z,94.76
2024-03-25T07:29:28.380Z,93.68
2024-03-25T07:30:28.413Z,92.34
2024-03-25T07:31:28.367Z,93.95
2024-03-25T07:32:28.352Z,91.70
2024-03-25T07:33:28.387Z,87.82
2024-03-25T07:34:28.329Z,85.14
2024-03-25T07:35:28.325Z,85.86
2024-03-25T07:36:28.301Z,86.00
2024-03-25T07:37:28.287Z,83.29
2024-03-25T07:38:28.292Z,83.23
2024-03-25T07:39:28.287Z,82.06
2024-03-25T07:40:28.257Z,82.99
2024-03-25T07:41:28.260Z,85.14
2024-03-25T07:42:28.244Z,82.20
2024-03-25T07:43:28.217Z,83.89
2024-03-25T07:44:28.249Z,84.85
2024-03-25T07:45:28.245Z,85.12
2024-03-25T07:46:28.195Z,86.91
2024-03-25T07:47:28.212Z,86.50
2024-03-25T07:48:28.187Z,87.32
2024-03-25T07:49:28.170Z,85.16
2024-03-25T07:50:28.185Z,86.40
2024-03-25T07:51:28.149Z,85.98
2024-03-25T07:52:28.135Z,86.80
2024-03-25T07:53:28.128Z,87.94
2024-03-25T07:54:28.168Z,87.12
2024-03-25T07:55:28.118Z,86.74
2024-03-25T07:56:28.123Z,87.98
2024-03-25T07:57:28.077Z,88.45
2024-03-25T07:58:28.079Z,87.42
2024-03-25T07:59:28.055Z,86.25
2024-03-25T08:00:28.053Z,86.35
2024-03-25T08:01:28.102Z,85.18
2024-03-25T08:02:28.030Z,84.16
2024-03-25T08:03:28.020Z,87.30
2024-03-25T08:04:28.020Z,86.58
2024-03-25T08:05:27.993Z,84.08
2024-03-25T08:06:27.984Z,81.62
2024-03-25T08:07:28.006Z,80.90
2024-03-25T08:08:27.988Z,81.57
2024-03-25T08:09:27.953Z,81.06
2024-03-25T08:10:27.959Z,81.41
2024-03-25T08:11:27.962Z,80.38
2024-03-25T08:12:27.950Z,80.38
2024-03-25T08:13:27.921Z,81.55
2024-03-25T08:14:27.897Z,81.45
2024-03-25T08:15:27.892Z,81.45
2024-03-25T08:16:27.950Z,80.69
2024-03-25T08:17:27.888Z,80.58
2024-03-25T08:18:27.880Z,81.34
2024-03-25T08:19:27.925Z,81.96
2024-03-25T08:20:27.835Z,80.52
2024-03-25T08:21:27.821Z,80.52
2024-03-25T08:22:27.832Z,81.00
2024-03-25T08:23:27.846Z,81.51
2024-03-25T08:24:27.810Z,80.86
2024-03-25T08:25:27.788Z,78.70
2024-03-25T08:26:27.776Z,79.01
2024-03-25T08:27:27.762Z,78.29
2024-03-25T08:28:27.754Z,78.81
2024-03-25T08:29:27.771Z,78.81
2024-03-25T08:30:27.731Z,79.83
2024-03-25T08:31:27.721Z,79.22
2024-03-25T08:32:27.713Z,79.42
2024-03-25T08:33:27.721Z,79.42
2024-03-25T08:34:27.733Z,79.01
2024-03-25T08:35:27.697Z,79.83
2024-03-25T08:36:27.662Z,78.19
2024-03-25T08:37:27.670Z,78.36
2024-03-25T08:38:27.663Z,77.68
2024-03-25T08:39:27.635Z,79.77
2024-03-25T08:40:27.649Z,80.65
2024-03-25T08:41:27.646Z,80.35
2024-03-25T08:42:27.609Z,79.18
2024-03-25T08:43:27.605Z,77.33
2024-03-25T08:44:27.576Z,78.05
2024-03-25T08:45:27.645Z,77.84
2024-03-25T08:46:27.597Z,77.54
2024-03-25T08:47:27.593Z,79.08
2024-03-25T08:48:27.553Z,77.61
2024-03-25T08:49:27.526Z,77.50
2024-03-25T08:50:27.540Z,76.48
2024-03-25T08:51:27.510Z,78.12
2024-03-25T08:52:27.546Z,77.20
2024-03-25T08:53:27.488Z,77.40
2024-03-25T08:54:27.496Z,75.11
2024-03-25T08:55:27.462Z,76.03
2024-03-25T08:56:27.453Z,75.82
2024-03-25T08:57:27.557Z,75.31
2024-03-25T08:58:27.449Z,76.89
2024-03-25T08:59:27.432Z,74.26
2024-03-25T09:00:27.422Z,75.96
2024-03-25T09:01:27.437Z,74.84
2024-03-25T09:02:27.382Z,73.81
2024-03-25T09:03:27.395Z,75.35
2024-03-25T09:04:28.385Z,74.08
2024-03-25T09:05:27.362Z,73.68
2024-03-25T09:06:27.351Z,73.36
2024-03-25T09:07:27.352Z,74.70
2024-03-25T09:08:27.351Z,72.96
2024-03-25T09:09:27.355Z,72.86
2024-03-25T09:10:27.309Z,73.13
2024-03-25T09:11:27.299Z,73.13
2024-03-25T09:12:27.273Z,73.44
2024-03-25T09:13:27.300Z,72.55
2024-03-25T09:14:27.368Z,73.16
2024-03-25T09:15:27.275Z,72.72
2024-03-25T09:16:27.327Z,72.89
2024-03-25T09:17:27.315Z,72.17
2024-03-25T09:18:27.215Z,69.71
2024-03-25T09:19:27.264Z,71.73
2024-03-25T09:20:27.223Z,70.37
2024-03-25T09:21:27.235Z,69.34
2024-03-25T09:22:27.200Z,69.75
2024-03-25T09:23:27.163Z,70.09
2024-03-25T09:24:27.150Z,70.61
2024-03-25T09:25:27.184Z,70.29
2024-03-25T09:26:27.169Z,72.14
2024-03-25T09:27:27.160Z,70.26
2024-03-25T09:28:27.191Z,72.41
2024-03-25T09:29:27.145Z,71.08
2024-03-25T09:30:27.087Z,70.34
2024-03-25T09:31:27.085Z,69.42
2024-03-25T09:32:27.094Z,69.82
2024-03-25T09:33:27.112Z,70.40
2024-03-25T09:34:27.072Z,72.34
2024-03-25T09:35:27.079Z,72.07
2024-03-25T09:36:27.059Z,73.27
2024-03-25T09:37:27.020Z,72.04
2024-03-25T09:38:27.041Z,70.57
2024-03-25T09:39:27.010Z,70.67
2024-03-25T09:40:26.998Z,69.85
2024-03-25T09:41:26.978Z,70.88
2024-03-25T09:42:27.076Z,71.66
2024-03-25T09:43:26.947Z,69.89
2024-03-25T09:44:26.981Z,68.05
2024-03-25T09:45:26.939Z,68.12
2024-03-25T09:46:26.938Z,66.08
2024-03-25T09:47:26.921Z,66.93
2024-03-25T09:48:26.887Z,68.23
2024-03-25T09:49:26.886Z,66.80
2024-03-25T09:50:26.931Z,65.57
2024-03-25T09:51:26.870Z,63.93
2024-03-25T09:52:26.868Z,65.57
2024-03-25T09:53:26.858Z,63.32
2024-03-25T09:54:26.835Z,62.84
2024-03-25T09:55:26.852Z,61.82
2024-03-25T09:56:26.810Z,61.41
2024-03-25T09:57:26.809Z,60.08
2024-03-25T09:58:26.783Z,58.34
2024-03-25T09:59:26.817Z,57.93
2024-03-25T10:00:26.759Z,58.04
2024-03-25T10:01:26.774Z,58.86
2024-03-25T10:02:26.761Z,58.62
2024-03-25T10:03:26.735Z,55.82
2024-03-25T10:04:26.718Z,52.55
2024-03-25T10:05:26.736Z,54.11
2024-03-25T10:06:26.724Z,55.43
2024-03-25T10:07:26.819Z,57.65
2024-03-25T10:08:26.715Z,51.40
2024-03-25T10:09:26.700Z,51.30
2024-03-25T10:10:26.663Z,52.22
2024-03-25T10:11:26.774Z,50.10
2024-03-25T10:12:26.631Z,52.70
2024-03-25T10:13:26.658Z,50.77
2024-03-25T10:14:26.622Z,51.28
2024-03-25T10:15:26.601Z,51.58
2024-03-25T10:16:26.718Z,51.38
2024-03-25T10:17:26.601Z,51.68
2024-03-25T10:18:26.575Z,52.22
2024-03-25T10:19:26.606Z,53.36
2024-03-25T10:20:26.567Z,53.16
2024-03-25T10:21:26.536Z,53.90
2024-03-25T10:22:26.538Z,53.70
2024-03-25T10:23:26.513Z,53.29
2024-03-25T10:24:26.611Z,54.00
2024-03-25T10:25:26.518Z,55.71
2024-03-25T10:26:26.482Z,55.91
2024-03-25T10:27:26.487Z,54.49
2024-03-25T10:28:26.556Z,56.12
2024-03-25T10:29:26.447Z,55.28
2024-03-25T10:30:26.502Z,55.07
2024-03-25T10:31:26.432Z,54.77
2024-03-25T10:32:26.422Z,55.10
2024-03-25T10:33:26.411Z,54.39
2024-03-25T10:34:26.484Z,54.26
2024-03-25T10:35:27.888Z,53.96
2024-03-25T10:36:26.490Z,54.26
2024-03-25T10:37:26.369Z,54.46
2024-03-25T10:38:26.365Z,54.03
2024-03-25T10:39:26.382Z,53.64
2024-03-25T10:40:26.346Z,54.26
2024-03-25T10:41:26.325Z,53.62
2024-03-25T10:42:26.409Z,52.81
2024-03-25T10:43:26.317Z,52.73
2024-03-25T10:44:26.285Z,54.05
2024-03-25T10:45:26.378Z,53.92
2024-03-25T10:46:26.266Z,54.79
2024-03-25T10:47:29.027Z,53.32
2024-03-25T10:48:26.249Z,52.78
2024-03-25T10:49:26.238Z,50.24
2024-03-25T10:50:26.243Z,51.67
2024-03-25T10:51:26.217Z,49.94
2024-03-25T10:52:26.276Z,51.41
2024-03-25T10:53:26.389Z,51.72
2024-03-25T10:54:26.187Z,50.90
2024-03-25T10:55:26.183Z,50.90
2024-03-25T10:56:26.172Z,50.70
2024-03-25T10:57:26.199Z,51.92
2024-03-25T10:58:26.167Z,50.92
2024-03-25T10:59:26.206Z,51.84
2024-03-25T11:00:26.147Z,53.16
2024-03-25T11:01:26.179Z,51.53
2024-03-25T11:02:26.098Z,52.15
2024-03-25T11:03:26.151Z,51.84
2024-03-25T11:04:26.095Z,51.20
2024-03-25T11:05:27.422Z,50.92
2024-03-25T11:06:26.062Z,50.92
2024-03-25T11:07:26.143Z,51.64
2024-03-25T11:08:26.057Z,53.06
2024-03-25T11:09:26.030Z,52.15
2024-03-25T11:10:26.149Z,52.07
2024-03-25T11:11:26.166Z,52.60
2024-03-25T11:12:26.025Z,51.38
2024-03-25T11:13:26.008Z,52.17
2024-03-25T11:14:25.978Z,51.89
2024-03-25T11:15:25.993Z,50.95
2024-03-25T11:16:25.962Z,51.58
2024-03-25T11:17:25.992Z,51.48
2024-03-25T11:18:25.946Z,50.54
2024-03-25T11:19:25.925Z,50.92
2024-03-25T11:20:25.917Z,49.40
2024-03-25T11:21:25.936Z,50.72
2024-03-25T11:22:25.919Z,50.21
2024-03-25T11:23:25.884Z,50.36
2024-03-25T11:24:25.901Z,52.42
2024-03-25T11:25:25.891Z,52.93
2024-03-25T11:26:25.854Z,53.55
2024-03-25T11:27:25.861Z,53.11
2024-03-25T11:28:25.867Z,53.80
2024-03-25T11:29:25.850Z,52.45
2024-03-25T11:30:25.837Z,51.10
2024-03-25T11:31:25.809Z,51.43
2024-03-25T11:32:25.798Z,50.92
2024-03-25T11:33:25.805Z,50.23
2024-03-25T11:34:25.795Z,51.17
2024-03-25T11:35:25.777Z,51.51
2024-03-25T11:36:25.759Z,52.62
2024-03-25T11:37:25.755Z,53.34
2024-03-25T11:38:25.729Z,54.16
2024-03-25T11:39:25.744Z,54.54
2024-03-25T11:40:25.711Z,53.92
2024-03-25T11:41:25.710Z,52.20
2024-03-25T11:42:25.696Z,52.29
2024-03-25T11:43:25.683Z,53.34
2024-03-25T11:44:25.686Z,54.57
2024-03-25T11:45:25.703Z,53.92
2024-03-25T11:46:25.660Z,52.78
2024-03-25T11:47:25.680Z,53.47
2024-03-25T11:48:25.638Z,53.16
2024-03-25T11:49:25.644Z,51.59
2024-03-25T11:50:25.636Z,50.62
2024-03-25T11:51:25.625Z,48.65
2024-03-25T11:52:25.631Z,48.04
2024-03-25T11:53:25.594Z,48.72
2024-03-25T11:54:25.569Z,48.30
2024-03-25T11:55:25.584Z,47.28
2024-03-25T11:56:25.552Z,47.20
2024-03-25T11:57:26.381Z,47.33
2024-03-25T11:58:25.540Z,47.58
2024-03-25T11:59:25.527Z,49.51
2024-03-25T12:00:25.531Z,48.80
2024-03-25T12:01:25.538Z,47.96
2024-03-25T12:02:25.501Z,47.05
2024-03-25T12:03:32.853Z,48.97
2024-03-25T12:04:25.507Z,50.34
2024-03-25T12:05:25.464Z,51.69
2024-03-25T12:06:25.503Z,51.20
2024-03-25T12:07:25.480Z,51.84
2024-03-25T12:08:25.431Z,52.12
2024-03-25T12:09:25.438Z,50.19
2024-03-25T12:10:25.422Z,51.51
2024-03-25T12:11:25.428Z,49.48
2024-03-25T12:12:25.390Z,50.52
2024-03-25T12:13:25.387Z,47.46
2024-03-25T12:14:25.377Z,46.55
2024-03-25T12:15:25.399Z,47.05
2024-03-25T12:16:25.371Z,46.62
2024-03-25T12:17:25.345Z,47.72
2024-03-25T12:18:25.351Z,46.68
2024-03-25T12:19:25.347Z,45.67
2024-03-25T12:20:25.337Z,44.24
2024-03-25T12:21:25.379Z,45.36
2024-03-25T12:22:25.299Z,45.26
2024-03-25T12:23:25.318Z,44.95
2024-03-25T12:24:25.286Z,45.26
2024-03-25T12:25:25.277Z,45.38
2024-03-25T12:26:25.267Z,46.30
2024-03-25T12:27:25.276Z,46.01
2024-03-25T12:28:25.243Z,47.03
2024-03-25T12:29:25.232Z,46.09
2024-03-25T12:30:25.215Z,45.48
2024-03-25T12:31:25.220Z,45.79
2024-03-25T12:32:25.721Z,47.42
2024-03-25T12:33:25.226Z,47.01
2024-03-25T12:34:25.219Z,47.70
2024-03-25T12:35:25.191Z,46.48
2024-03-25T12:36:25.152Z,45.79
2024-03-25T12:37:25.143Z,46.50
2024-03-25T12:38:25.172Z,46.70
2024-03-25T12:39:25.157Z,46.60
2024-03-25T12:40:25.143Z,45.46
2024-03-25T12:41:25.110Z,45.95
2024-03-25T12:42:25.755Z,45.24
2024-03-25T12:43:32.884Z,44.45
2024-03-25T12:44:25.118Z,45.48
2024-03-25T12:45:25.083Z,45.97
2024-03-25T12:46:25.063Z,45.95
2024-03-25T12:47:25.070Z,45.64
2024-03-25T12:48:25.046Z,44.71
2024-03-25T12:49:25.036Z,44.91
2024-03-25T12:50:25.041Z,44.93
2024-03-25T12:51:25.029Z,48.23
2024-03-25T12:52:25.000Z,47.11
2024-03-25T12:53:24.997Z,46.50